createdAt,value
2022-12-14T00:00:03.071Z,-6.90
2022-12-14T00:01:09.047Z,-6.94
2022-12-14T00:02:10.908Z,-6.89
2022-12-14T00:03:13.445Z,-6.84
2022-12-14T00:04:15.189Z,-6.73
2022-12-14T00:05:20.044Z,-6.65
2022-12-14T00:06:23.693Z,-6.67
2022-12-14T00:07:25.454Z,-6.75
2022-12-14T00:08:27.660Z,-6.77
2022-12-14T00:09:29.581Z,-6.76
2022-12-14T00:10:32.837Z,-6.74
2022-12-14T00:11:34.946Z,-6.73
2022-12-14T00:12:36.704Z,-6.81
2022-12-14T00:13:39.834Z,-6.85
2022-12-14T00:14:42.066Z,-6.81
2022-12-14T00:15:43.919Z,-6.77
2022-12-14T00:16:45.739Z,-6.86
2022-12-14T00:17:47.534Z,-6.91
2022-12-14T00:18:50.539Z,-6.91
2022-12-14T00:19:52.287Z,-6.92
2022-12-14T00:20:54.025Z,-6.90
2022-12-14T00:21:56.265Z,-6.87
2022-12-14T00:22:58.183Z,-6.81
2022-12-14T00:24:00.596Z,-6.79
2022-12-14T00:25:02.901Z,-6.81
2022-12-14T00:26:15.394Z,-6.84
2022-12-14T00:27:17.191Z,-6.77
2022-12-14T00:28:18.994Z,-6.74
2022-12-14T00:29:20.757Z,-6.72
2022-12-14T00:30:22.731Z,-6.74
2022-12-14T00:31:25.675Z,-6.72
2022-12-14T00:32:27.568Z,-6.77
2022-12-14T00:33:29.295Z,-6.81
2022-12-14T00:34:31.817Z,-6.84
2022-12-14T00:35:33.595Z,-6.87
2022-12-14T00:36:37.844Z,-6.89
2022-12-14T00:37:39.676Z,-6.95
2022-12-14T00:38:41.624Z,-6.96
2022-12-14T00:39:43.360Z,-6.87
2022-12-14T00:40:45.206Z,-6.79
2022-12-14T00:41:46.992Z,-6.77
2022-12-14T00:42:48.817Z,-6.72
2022-12-14T00:43:50.636Z,-6.71
2022-12-14T00:44:52.346Z,-6.68
2022-12-14T00:45:54.826Z,-6.74
2022-12-14T00:46:56.666Z,-6.81
2022-12-14T00:47:58.555Z,-6.86
2022-12-14T00:49:00.322Z,-6.80
2022-12-14T00:50:02.100Z,-6.77
2022-12-14T00:51:04.019Z,-6.82
2022-12-14T00:52:06.721Z,-6.85
2022-12-14T00:53:09.886Z,-6.85
2022-12-14T00:54:11.711Z,-6.83
2022-12-14T00:55:13.509Z,-6.78
2022-12-14T00:56:15.326Z,-6.80
2022-12-14T00:57:17.020Z,-6.77
2022-12-14T00:58:19.967Z,-6.75
2022-12-14T00:59:27.006Z,-6.69
2022-12-14T01:00:29.374Z,-6.70
2022-12-14T01:01:31.386Z,-6.69
2022-12-14T01:02:33.258Z,-6.65
2022-12-14T01:03:35.293Z,-6.59
2022-12-14T01:04:37.317Z,-6.58
2022-12-14T01:05:39.614Z,-6.61
2022-12-14T01:06:44.846Z,-6.71
2022-12-14T01:07:48.760Z,-6.74
2022-12-14T01:08:51.081Z,-6.70
2022-12-14T01:09:52.839Z,-6.67
2022-12-14T01:10:54.937Z,-6.61
2022-12-14T01:11:56.831Z,-6.58
2022-12-14T01:12:58.560Z,-6.55
2022-12-14T01:14:00.366Z,-6.51
2022-12-14T01:15:03.035Z,-6.47
2022-12-14T01:16:09.795Z,-6.37
2022-12-14T01:17:11.651Z,-6.32
2022-12-14T01:18:13.482Z,-6.33
2022-12-14T01:19:16.793Z,-6.39
2022-12-14T01:20:18.830Z,-6.46
2022-12-14T01:21:22.022Z,-6.43
2022-12-14T01:22:23.797Z,-6.38
2022-12-14T01:23:25.867Z,-6.40
2022-12-14T01:24:28.077Z,-6.39
2022-12-14T01:25:30.021Z,-6.33
2022-12-14T01:26:36.204Z,-6.30
2022-12-14T01:27:40.567Z,-6.25
2022-12-14T01:28:42.719Z,-6.27
2022-12-14T01:29:44.650Z,-6.33
2022-12-14T01:30:46.361Z,-6.34
2022-12-14T01:31:48.637Z,-6.37
2022-12-14T01:32:50.744Z,-6.41
2022-12-14T01:33:52.641Z,-6.41
2022-12-14T01:34:54.415Z,-6.43
2022-12-14T01:35:56.157Z,-6.37
2022-12-14T01:36:57.872Z,-6.36
2022-12-14T01:38:00.189Z,-6.39
2022-12-14T01:39:11.604Z,-6.37
2022-12-14T01:40:14.868Z,-6.33
2022-12-14T01:41:22.737Z,-6.27
2022-12-14T01:42:24.526Z,-6.26
2022-12-14T01:43:45.167Z,-6.26
2022-12-14T01:44:53.537Z,-6.23
2022-12-14T01:45:56.493Z,-6.16
2022-12-14T01:46:58.294Z,-6.10
2022-12-14T01:48:03.041Z,-6.12
2022-12-14T01:49:12.089Z,-6.13
2022-12-14T01:50:22.380Z,-6.09
2022-12-14T01:51:25.619Z,-6.09
2022-12-14T01:52:47.528Z,-6.11
2022-12-14T01:53:49.604Z,-6.11
2022-12-14T01:54:54.139Z,-6.12
2022-12-14T01:55:56.650Z,-6.12
2022-12-14T01:56:58.469Z,-6.13
2022-12-14T01:58:01.823Z,-6.18
2022-12-14T01:59:06.211Z,-6.18
2022-12-14T02:00:09.799Z,-6.12
2022-12-14T02:01:12.456Z,-6.09
2022-12-14T02:02:15.324Z,-6.04
2022-12-14T02:03:20.475Z,-5.97
2022-12-14T02:04:22.600Z,-5.91
2022-12-14T02:05:25.366Z,-5.85
2022-12-14T02:06:30.049Z,-5.81
2022-12-14T02:07:32.325Z,-5.78
2022-12-14T02:08:34.325Z,-5.80
2022-12-14T02:09:37.840Z,-5.80
2022-12-14T02:10:39.705Z,-5.83
2022-12-14T02:11:51.180Z,-5.80
2022-12-14T02:12:56.689Z,-5.79
2022-12-14T02:13:58.432Z,-5.73
2022-12-14T02:15:00.980Z,-5.71
2022-12-14T02:16:02.861Z,-5.65
2022-12-14T02:17:05.147Z,-5.61
2022-12-14T02:18:08.436Z,-5.61
2022-12-14T02:19:10.285Z,-5.61
2022-12-14T02:20:13.767Z,-5.58
2022-12-14T02:21:15.561Z,-5.62
2022-12-14T02:22:31.531Z,-5.60
2022-12-14T02:23:45.716Z,-5.57
2022-12-14T02:24:56.521Z,-5.54
2022-12-14T02:26:17.046Z,-5.58
2022-12-14T02:27:33.848Z,-5.57
2022-12-14T02:28:44.875Z,-5.61
2022-12-14T02:29:46.558Z,-5.61
2022-12-14T02:31:01.965Z,-5.58
2022-12-14T02:32:09.771Z,-5.60
2022-12-14T02:33:28.464Z,-5.57
2022-12-14T02:34:45.919Z,-5.59
2022-12-14T02:35:56.739Z,-5.58
2022-12-14T02:37:11.371Z,-5.65
2022-12-14T02:38:22.319Z,-5.72
2022-12-14T02:39:30.755Z,-5.74
2022-12-14T02:40:32.493Z,-5.75
2022-12-14T02:41:55.047Z,-5.77
2022-12-14T02:42:59.905Z,-5.81
2022-12-14T02:44:01.985Z,-5.77
2022-12-14T02:45:11.223Z,-5.75
2022-12-14T02:46:19.233Z,-5.73
2022-12-14T02:47:27.086Z,-5.67
2022-12-14T02:48:36.248Z,-5.59
2022-12-14T02:49:40.790Z,-5.56
2022-12-14T02:50:46.814Z,-5.61
2022-12-14T02:51:48.549Z,-5.57
2022-12-14T02:52:52.986Z,-5.51
2022-12-14T02:54:02.678Z,-5.46
2022-12-14T02:55:14.199Z,-5.47
2022-12-14T02:56:18.842Z,-5.49
2022-12-14T02:57:27.884Z,-5.46
2022-12-14T02:58:33.995Z,-5.42
2022-12-14T02:59:36.223Z,-5.38
2022-12-14T03:00:38.692Z,-5.38
2022-12-14T03:01:42.454Z,-5.35
2022-12-14T03:02:50.344Z,-5.36
2022-12-14T03:03:52.204Z,-5.35
2022-12-14T03:04:54.049Z,-5.33
2022-12-14T03:05:59.510Z,-5.37
2022-12-14T03:07:03.355Z,-5.34
2022-12-14T03:08:05.187Z,-5.27
2022-12-14T03:09:14.461Z,-5.23
2022-12-14T03:10:20.340Z,-5.26
2022-12-14T03:11:26.351Z,-5.27
2022-12-14T03:12:28.201Z,-5.35
2022-12-14T03:13:49.897Z,-5.37
2022-12-14T03:14:53.911Z,-5.43
2022-12-14T03:16:01.297Z,-5.36
2022-12-14T03:17:23.833Z,-5.29
2022-12-14T03:18:27.601Z,-5.23
2022-12-14T03:19:32.783Z,-5.25
2022-12-14T03:20:35.860Z,-5.26
2022-12-14T03:21:41.368Z,-5.28
2022-12-14T03:22:46.704Z,-5.27
2022-12-14T03:23:49.370Z,-5.33
2022-12-14T03:24:53.922Z,-5.36
2022-12-14T03:25:59.671Z,-5.37
2022-12-14T03:27:02.722Z,-5.34
2022-12-14T03:28:08.302Z,-5.39
2022-12-14T03:29:14.245Z,-5.37
2022-12-14T03:30:31.677Z,-5.34
2022-12-14T03:31:49.132Z,-5.30
2022-12-14T03:32:53.920Z,-5.26
2022-12-14T03:33:57.273Z,-5.21
2022-12-14T03:35:02.215Z,-5.16
2022-12-14T03:36:07.751Z,-5.18
2022-12-14T03:37:12.835Z,-5.17
2022-12-14T03:38:21.967Z,-5.19
2022-12-14T03:39:26.009Z,-5.25
2022-12-14T03:40:33.047Z,-5.26
2022-12-14T03:41:55.016Z,-5.28
2022-12-14T03:43:03.569Z,-5.30
2022-12-14T03:44:12.892Z,-5.24
2022-12-14T03:45:18.622Z,-5.20
2022-12-14T03:46:20.348Z,-5.22
2022-12-14T03:47:23.694Z,-5.20
2022-12-14T03:48:25.502Z,-5.22
2022-12-14T03:49:43.875Z,-5.20
2022-12-14T03:50:49.651Z,-5.15
2022-12-14T03:52:00.556Z,-5.15
2022-12-14T03:53:13.623Z,-5.14
2022-12-14T03:54:32.729Z,-5.14
2022-12-14T03:55:42.314Z,-5.12
2022-12-14T03:56:45.267Z,-5.09
2022-12-14T03:57:50.318Z,-5.08
2022-12-14T03:59:01.988Z,-5.03
2022-12-14T04:00:07.403Z,-5.06
2022-12-14T04:01:09.253Z,-5.08
2022-12-14T04:02:16.013Z,-5.07
2022-12-14T04:03:41.423Z,-5.05
2022-12-14T04:04:47.190Z,-5.02
2022-12-14T04:05:57.170Z,-4.96
2022-12-14T04:07:28.284Z,-4.93
2022-12-14T04:08:35.941Z,-4.89
2022-12-14T04:09:45.531Z,-4.89
2022-12-14T04:11:07.922Z,-4.86
2022-12-14T04:12:51.050Z,-4.87
2022-12-14T04:14:27.257Z,-4.85
2022-12-14T04:15:51.267Z,-4.84
2022-12-14T04:17:12.915Z,-4.86
2022-12-14T04:18:40.956Z,-4.84
2022-12-14T04:19:48.803Z,-4.84
2022-12-14T04:20:53.944Z,-4.77
2022-12-14T04:22:18.444Z,-4.76
2022-12-14T04:23:43.361Z,-4.81
2022-12-14T04:25:15.928Z,-4.73
2022-12-14T04:26:19.744Z,-4.73
2022-12-14T04:27:37.881Z,-4.73
2022-12-14T04:29:01.545Z,-4.73
2022-12-14T04:30:05.373Z,-4.72
2022-12-14T04:31:12.264Z,-4.75
2022-12-14T04:32:17.999Z,-4.74
2022-12-14T04:33:38.435Z,-4.72
2022-12-14T04:34:41.716Z,-4.68
2022-12-14T04:35:43.972Z,-4.67
2022-12-14T04:36:51.996Z,-4.68
2022-12-14T04:37:58.182Z,-4.69
2022-12-14T04:39:05.555Z,-4.71
2022-12-14T04:40:33.647Z,-4.65
2022-12-14T04:41:37.703Z,-4.67
2022-12-14T04:42:47.224Z,-4.70
2022-12-14T04:43:51.090Z,-4.68
2022-12-14T04:44:54.655Z,-4.66
2022-12-14T04:46:02.688Z,-4.62
2022-12-14T04:47:07.342Z,-4.57
2022-12-14T04:48:15.536Z,-4.53
2022-12-14T04:49:17.250Z,-4.51
2022-12-14T04:50:22.880Z,-4.58
2022-12-14T04:51:40.059Z,-4.65
2022-12-14T04:52:51.110Z,-4.66
2022-12-14T04:53:56.333Z,-4.62
2022-12-14T04:55:16.541Z,-4.65
2022-12-14T04:56:26.343Z,-4.62
2022-12-14T04:57:46.635Z,-4.62
2022-12-14T04:58:48.746Z,-4.60
2022-12-14T04:59:50.746Z,-4.59
2022-12-14T05:01:09.800Z,-4.59
2022-12-14T05:02:11.670Z,-4.56
2022-12-14T05:03:13.608Z,-4.50
2022-12-14T05:04:21.318Z,-4.52
2022-12-14T05:05:34.888Z,-4.58
2022-12-14T05:06:58.424Z,-4.56
2022-12-14T05:08:03.195Z,-4.52
2022-12-14T05:09:07.947Z,-4.53
2022-12-14T05:10:14.774Z,-4.50
2022-12-14T05:11:52.687Z,-4.48
2022-12-14T05:13:09.543Z,-4.45
2022-12-14T05:14:16.160Z,-4.47
2022-12-14T05:15:21.953Z,-4.47
2022-12-14T05:16:24.596Z,-4.46
2022-12-14T05:17:27.547Z,-4.47
2022-12-14T05:18:29.444Z,-4.43
2022-12-14T05:19:31.328Z,-4.42
2022-12-14T05:20:33.491Z,-4.37
2022-12-14T05:21:47.508Z,-4.33
2022-12-14T05:22:50.271Z,-4.31
2022-12-14T05:23:52.042Z,-4.29
2022-12-14T05:24:53.826Z,-4.25
2022-12-14T05:25:55.613Z,-4.20
2022-12-14T05:26:57.393Z,-4.15
2022-12-14T05:27:59.267Z,-4.11
2022-12-14T05:29:01.013Z,-4.14
2022-12-14T05:30:04.094Z,-4.22
2022-12-14T05:31:06.184Z,-4.22
2022-12-14T05:32:09.464Z,-4.23
2022-12-14T05:33:16.497Z,-4.26
2022-12-14T05:34:18.417Z,-4.29
2022-12-14T05:35:20.346Z,-4.28
2022-12-14T05:36:22.635Z,-4.26
2022-12-14T05:37:24.507Z,-4.23
2022-12-14T05:38:26.259Z,-4.19
2022-12-14T05:39:28.176Z,-4.16
2022-12-14T05:40:29.921Z,-4.15
2022-12-14T05:41:31.691Z,-4.22
2022-12-14T05:42:33.528Z,-4.32
2022-12-14T05:43:35.338Z,-4.34
2022-12-14T05:44:37.129Z,-4.35
2022-12-14T05:45:38.964Z,-4.36
2022-12-14T05:46:40.833Z,-4.38
2022-12-14T05:47:42.954Z,-4.40
2022-12-14T05:48:48.976Z,-4.42
2022-12-14T05:49:51.453Z,-4.40
2022-12-14T05:50:53.214Z,-4.39
2022-12-14T05:51:55.080Z,-4.34
2022-12-14T05:52:57.026Z,-4.35
2022-12-14T05:53:59.286Z,-4.34
2022-12-14T05:55:04.434Z,-4.35
2022-12-14T05:56:07.415Z,-4.34
2022-12-14T05:57:09.279Z,-4.33
2022-12-14T05:58:11.238Z,-4.30
2022-12-14T05:59:15.881Z,-4.29
2022-12-14T06:00:17.922Z,-4.27
2022-12-14T06:01:20.092Z,-4.30
2022-12-14T06:02:22.041Z,-4.32
2022-12-14T06:03:23.859Z,-4.31
2022-12-14T06:04:25.799Z,-4.29
2022-12-14T06:05:27.687Z,-4.29
2022-12-14T06:06:29.671Z,-4.32
2022-12-14T06:07:31.604Z,-4.32
2022-12-14T06:08:34.113Z,-4.33
2022-12-14T06:09:35.869Z,-4.31
2022-12-14T06:10:39.178Z,-4.31
2022-12-14T06:11:41.362Z,-4.30
2022-12-14T06:12:43.905Z,-4.32
2022-12-14T06:13:45.994Z,-4.29
2022-12-14T06:14:47.759Z,-4.26
2022-12-14T06:15:49.605Z,-4.30
2022-12-14T06:16:51.484Z,-4.35
2022-12-14T06:17:53.272Z,-4.37
2022-12-14T06:18:56.340Z,-4.41
2022-12-14T06:19:58.097Z,-4.41
2022-12-14T06:20:59.863Z,-4.44
2022-12-14T06:22:01.697Z,-4.43
2022-12-14T06:23:03.499Z,-4.44
2022-12-14T06:24:05.941Z,-4.46
2022-12-14T06:25:08.279Z,-4.43
2022-12-14T06:26:12.753Z,-4.41
2022-12-14T06:27:15.181Z,-4.38
2022-12-14T06:28:16.980Z,-4.35
2022-12-14T06:29:20.295Z,-4.35
2022-12-14T06:30:22.195Z,-4.35
2022-12-14T06:31:25.386Z,-4.35
2022-12-14T06:32:27.227Z,-4.34
2022-12-14T06:33:29.800Z,-4.34
2022-12-14T06:34:36.728Z,-4.38
2022-12-14T06:35:44.967Z,-4.42
2022-12-14T06:36:49.330Z,-4.48
2022-12-14T06:37:52.197Z,-4.49
2022-12-14T06:38:57.241Z,-4.45
2022-12-14T06:39:58.960Z,-4.47
2022-12-14T06:41:00.888Z,-4.44
2022-12-14T06:42:03.839Z,-4.41
2022-12-14T06:43:07.414Z,-4.40
2022-12-14T06:44:13.431Z,-4.35
2022-12-14T06:45:15.291Z,-4.31
2022-12-14T06:46:18.591Z,-4.29
2022-12-14T06:47:20.463Z,-4.26
2022-12-14T06:48:22.224Z,-4.20
2022-12-14T06:49:24.121Z,-4.17
2022-12-14T06:50:27.852Z,-4.18
2022-12-14T06:51:29.779Z,-4.19
2022-12-14T06:52:31.527Z,-4.15
2022-12-14T06:53:34.146Z,-4.11
2022-12-14T06:54:36.035Z,-4.12
2022-12-14T06:55:37.777Z,-4.11
2022-12-14T06:56:40.938Z,-4.13
2022-12-14T06:57:42.725Z,-4.12
2022-12-14T06:58:45.089Z,-4.13
2022-12-14T06:59:46.858Z,-4.12
2022-12-14T07:00:48.594Z,-4.13
2022-12-14T07:01:50.732Z,-4.10
2022-12-14T07:02:52.775Z,-4.06
2022-12-14T07:03:56.001Z,-4.05
2022-12-14T07:04:57.751Z,-4.04
2022-12-14T07:06:00.507Z,-4.04
2022-12-14T07:07:02.305Z,-4.02
2022-12-14T07:08:04.397Z,-3.99
2022-12-14T07:09:07.087Z,-4.03
2022-12-14T07:10:10.201Z,-4.06
2022-12-14T07:11:13.168Z,-4.07
2022-12-14T07:12:15.784Z,-4.07
2022-12-14T07:13:17.621Z,-4.06
2022-12-14T07:14:19.413Z,-4.03
2022-12-14T07:15:21.311Z,-4.02
2022-12-14T07:16:24.341Z,-4.04
2022-12-14T07:17:26.169Z,-4.02
2022-12-14T07:18:28.483Z,-4.00
2022-12-14T07:19:30.307Z,-3.99
2022-12-14T07:20:32.092Z,-3.95
2022-12-14T07:21:34.200Z,-3.97
2022-12-14T07:22:36.405Z,-3.97
2022-12-14T07:23:38.938Z,-3.97
2022-12-14T07:24:41.262Z,-3.99
2022-12-14T07:25:43.032Z,-3.99
2022-12-14T07:26:45.011Z,-3.98
2022-12-14T07:27:46.931Z,-3.93
2022-12-14T07:28:48.901Z,-3.92
2022-12-14T07:29:50.660Z,-3.91
2022-12-14T07:30:55.157Z,-3.91
2022-12-14T07:31:56.948Z,-3.90
2022-12-14T07:32:58.714Z,-3.88
2022-12-14T07:34:00.561Z,-3.84
2022-12-14T07:35:02.391Z,-3.82
2022-12-14T07:36:07.298Z,-3.79
2022-12-14T07:37:09.730Z,-3.78
2022-12-14T07:38:11.554Z,-3.76
2022-12-14T07:39:15.986Z,-3.73
2022-12-14T07:40:17.819Z,-3.74
2022-12-14T07:41:23.827Z,-3.75
2022-12-14T07:42:25.583Z,-3.74
2022-12-14T07:43:27.729Z,-3.73
2022-12-14T07:44:29.795Z,-3.73
2022-12-14T07:45:31.612Z,-3.73
2022-12-14T07:46:34.459Z,-3.69
2022-12-14T07:47:36.305Z,-3.68
2022-12-14T07:48:39.483Z,-3.65
2022-12-14T07:49:41.271Z,-3.65
2022-12-14T07:50:43.010Z,-3.64
2022-12-14T07:51:46.036Z,-3.63
2022-12-14T07:52:47.900Z,-3.65
2022-12-14T07:53:50.359Z,-3.64
2022-12-14T07:54:52.093Z,-3.62
2022-12-14T07:55:53.881Z,-3.59
2022-12-14T07:56:55.931Z,-3.59
2022-12-14T07:57:57.795Z,-3.58
2022-12-14T07:59:00.328Z,-3.57
2022-12-14T08:00:02.117Z,-3.53
2022-12-14T08:01:11.589Z,-3.49
2022-12-14T08:02:13.765Z,-3.52
2022-12-14T08:03:15.694Z,-3.49
2022-12-14T08:04:18.992Z,-3.51
2022-12-14T08:05:20.855Z,-3.51
2022-12-14T08:06:23.644Z,-3.51
2022-12-14T08:07:25.584Z,-3.47
2022-12-14T08:08:27.432Z,-3.48
2022-12-14T08:09:29.233Z,-3.49
2022-12-14T08:10:33.359Z,-3.47
2022-12-14T08:11:39.401Z,-3.45
2022-12-14T08:12:41.273Z,-3.42
2022-12-14T08:13:43.706Z,-3.35
2022-12-14T08:14:45.495Z,-3.32
2022-12-14T08:15:47.347Z,-3.28
2022-12-14T08:16:49.913Z,-3.26
2022-12-14T08:17:51.732Z,-3.25
2022-12-14T08:18:54.447Z,-3.22
2022-12-14T08:19:57.293Z,-3.21
2022-12-14T08:20:59.227Z,-3.20
2022-12-14T08:22:01.069Z,-3.17
2022-12-14T08:23:03.775Z,-3.16
2022-12-14T08:24:05.751Z,-3.13
2022-12-14T08:25:07.979Z,-3.09
2022-12-14T08:26:09.871Z,-3.06
2022-12-14T08:27:11.655Z,-3.06
2022-12-14T08:28:13.563Z,-3.03
2022-12-14T08:29:15.842Z,-3.02
2022-12-14T08:30:18.288Z,-2.97
2022-12-14T08:31:21.000Z,-2.92
2022-12-14T08:32:27.223Z,-2.89
2022-12-14T08:33:33.124Z,-2.83
2022-12-14T08:34:35.105Z,-2.81
2022-12-14T08:35:36.934Z,-2.79
2022-12-14T08:36:39.413Z,-2.75
2022-12-14T08:37:47.227Z,-2.75
2022-12-14T08:39:00.029Z,-2.72
2022-12-14T08:40:01.895Z,-2.76
2022-12-14T08:41:04.800Z,-2.74
2022-12-14T08:42:06.636Z,-2.73
2022-12-14T08:43:09.980Z,-2.70
2022-12-14T08:44:11.951Z,-2.72
2022-12-14T08:45:13.754Z,-2.73
2022-12-14T08:46:15.540Z,-2.71
2022-12-14T08:47:17.382Z,-2.70
2022-12-14T08:48:19.525Z,-2.70
2022-12-14T08:49:21.878Z,-2.69
2022-12-14T08:50:23.705Z,-2.67
2022-12-14T08:51:26.331Z,-2.67
2022-12-14T08:52:29.132Z,-2.65
2022-12-14T08:53:31.525Z,-2.63
2022-12-14T08:54:33.679Z,-2.65
2022-12-14T08:55:38.758Z,-2.62
2022-12-14T08:56:40.708Z,-2.58
2022-12-14T08:57:42.679Z,-2.56
2022-12-14T08:58:44.753Z,-2.57
2022-12-14T09:00:02.746Z,-2.55
2022-12-14T09:01:05.543Z,-2.50
2022-12-14T09:02:07.650Z,-2.46
2022-12-14T09:03:09.694Z,-2.40
2022-12-14T09:04:11.527Z,-2.37
2022-12-14T09:05:13.390Z,-2.36
2022-12-14T09:06:19.673Z,-2.33
2022-12-14T09:07:21.530Z,-2.31
2022-12-14T09:08:23.416Z,-2.32
2022-12-14T09:09:25.291Z,-2.31
2022-12-14T09:10:27.298Z,-2.31
2022-12-14T09:11:29.463Z,-2.26
2022-12-14T09:12:31.274Z,-2.22
2022-12-14T09:13:33.859Z,-2.14
2022-12-14T09:14:35.994Z,-2.09
2022-12-14T09:15:37.743Z,-2.05
2022-12-14T09:16:40.517Z,-1.97
2022-12-14T09:17:42.649Z,-1.95
2022-12-14T09:18:45.154Z,-1.97
2022-12-14T09:19:46.964Z,-1.97
2022-12-14T09:20:48.728Z,-1.97
2022-12-14T09:21:51.431Z,-1.94
2022-12-14T09:22:53.279Z,-1.91
2022-12-14T09:23:59.320Z,-1.85
2022-12-14T09:25:02.185Z,-1.79
2022-12-14T09:26:04.009Z,-1.81
2022-12-14T09:27:05.826Z,-1.75
2022-12-14T09:28:07.554Z,-1.74
2022-12-14T09:29:15.433Z,-1.69
2022-12-14T09:30:21.698Z,-1.68
2022-12-14T09:31:27.412Z,-1.63
2022-12-14T09:32:29.867Z,-1.56
2022-12-14T09:33:32.529Z,-1.51
2022-12-14T09:34:35.421Z,-1.50
2022-12-14T09:35:37.212Z,-1.48
2022-12-14T09:36:38.992Z,-1.49
2022-12-14T09:37:40.769Z,-1.47
2022-12-14T09:38:51.040Z,-1.47
2022-12-14T09:39:53.980Z,-1.46
2022-12-14T09:40:57.609Z,-1.45
2022-12-14T09:42:17.405Z,-1.43
2022-12-14T09:43:36.350Z,-1.45
2022-12-14T09:44:38.651Z,-1.44
2022-12-14T09:45:48.385Z,-1.46
2022-12-14T09:46:56.446Z,-1.46
2022-12-14T09:47:59.305Z,-1.48
2022-12-14T09:49:02.372Z,-1.47
2022-12-14T09:50:05.795Z,-1.48
2022-12-14T09:51:10.758Z,-1.49
2022-12-14T09:52:17.296Z,-1.49
2022-12-14T09:53:20.417Z,-1.47
2022-12-14T09:54:24.733Z,-1.46
2022-12-14T09:55:34.753Z,-1.44
2022-12-14T09:56:38.467Z,-1.44
2022-12-14T09:57:41.749Z,-1.39
2022-12-14T09:59:09.779Z,-1.38
2022-12-14T10:00:18.339Z,-1.36
2022-12-14T10:01:33.382Z,-1.32
2022-12-14T10:02:51.225Z,-1.31
2022-12-14T10:04:16.478Z,-1.27
2022-12-14T10:05:25.101Z,-1.22
2022-12-14T10:06:45.566Z,-1.17
2022-12-14T10:08:25.757Z,-1.15
2022-12-14T10:09:50.236Z,-1.09
2022-12-14T10:10:51.923Z,-0.99
2022-12-14T10:12:08.076Z,-0.96
2022-12-14T10:13:22.857Z,-0.91
2022-12-14T10:14:44.544Z,-0.86
2022-12-14T10:15:53.658Z,-0.82
2022-12-14T10:16:55.462Z,-0.77
2022-12-14T10:17:57.229Z,-0.74
2022-12-14T10:19:11.626Z,-0.71
2022-12-14T10:20:32.337Z,-0.68
2022-12-14T10:21:39.462Z,-0.62
2022-12-14T10:22:46.709Z,-0.61
2022-12-14T10:23:51.077Z,-0.58
2022-12-14T10:24:59.561Z,-0.54
2022-12-14T10:26:03.954Z,-0.50
2022-12-14T10:27:07.507Z,-0.46
2022-12-14T10:28:18.497Z,-0.44
2022-12-14T10:29:29.066Z,-0.42
2022-12-14T10:30:31.514Z,-0.42
2022-12-14T10:31:39.759Z,-0.42
2022-12-14T10:32:47.470Z,-0.38
2022-12-14T10:33:52.139Z,-0.34
2022-12-14T10:34:54.150Z,-0.30
2022-12-14T10:36:00.793Z,-0.32
2022-12-14T10:37:14.419Z,-0.35
2022-12-14T10:38:18.791Z,-0.36
2022-12-14T10:39:30.569Z,-0.36
2022-12-14T10:40:34.975Z,-0.38
2022-12-14T10:41:49.792Z,-0.35
2022-12-14T10:42:51.751Z,-0.34
2022-12-14T10:44:05.452Z,-0.32
2022-12-14T10:45:39.254Z,-0.32
2022-12-14T10:46:43.184Z,-0.32
2022-12-14T10:47:48.580Z,-0.32
2022-12-14T10:48:50.984Z,-0.33
2022-12-14T10:50:00.817Z,-0.34
2022-12-14T10:51:05.471Z,-0.32
2022-12-14T10:52:19.527Z,-0.29
2022-12-14T10:53:26.277Z,-0.27
2022-12-14T10:54:28.060Z,-0.22
2022-12-14T10:55:33.905Z,-0.18
2022-12-14T10:56:36.669Z,-0.15
2022-12-14T10:57:39.549Z,-0.14
2022-12-14T10:58:41.415Z,-0.14
2022-12-14T10:59:57.053Z,-0.14
2022-12-14T11:01:05.793Z,-0.12
2022-12-14T11:02:28.291Z,-0.11
2022-12-14T11:03:30.478Z,-0.09
2022-12-14T11:04:37.792Z,-0.09
2022-12-14T11:05:48.994Z,-0.07
2022-12-14T11:06:50.840Z,-0.01
2022-12-14T11:07:52.769Z,0.03
2022-12-14T11:08:55.959Z,0.06
2022-12-14T11:10:14.254Z,0.07
2022-12-14T11:11:21.853Z,0.07
2022-12-14T11:12:25.213Z,0.09
2022-12-14T11:13:27.155Z,0.13
2022-12-14T11:14:29.028Z,0.17
2022-12-14T11:15:34.303Z,0.17
2022-12-14T11:16:39.641Z,0.17
2022-12-14T11:17:42.971Z,0.24
2022-12-14T11:18:55.668Z,0.27
2022-12-14T11:20:15.643Z,0.30
2022-12-14T11:21:17.479Z,0.33
2022-12-14T11:22:22.483Z,0.35
2022-12-14T11:23:36.806Z,0.37
2022-12-14T11:24:46.002Z,0.41
2022-12-14T11:25:50.965Z,0.46
2022-12-14T11:26:53.824Z,0.49
2022-12-14T11:27:56.402Z,0.51
2022-12-14T11:28:59.165Z,0.54
2022-12-14T11:30:01.059Z,0.58
2022-12-14T11:31:08.044Z,0.59
2022-12-14T11:32:17.428Z,0.62
2022-12-14T11:33:19.371Z,0.63
2022-12-14T11:34:47.309Z,0.64
2022-12-14T11:35:52.844Z,0.66
2022-12-14T11:36:56.556Z,0.68
2022-12-14T11:37:59.559Z,0.73
2022-12-14T11:39:13.730Z,0.75
2022-12-14T11:40:20.223Z,0.77
2022-12-14T11:41:22.555Z,0.77
2022-12-14T11:42:24.819Z,0.81
2022-12-14T11:43:28.465Z,0.85
2022-12-14T11:44:34.554Z,0.85
2022-12-14T11:45:36.514Z,0.83
2022-12-14T11:46:44.915Z,0.82
2022-12-14T11:47:47.133Z,0.83
2022-12-14T11:48:49.589Z,0.84
2022-12-14T11:49:55.627Z,0.84
2022-12-14T11:51:11.158Z,0.85
2022-12-14T11:52:23.192Z,0.86
2022-12-14T11:53:25.058Z,0.88
2022-12-14T11:54:26.893Z,0.88
2022-12-14T11:55:29.210Z,0.91
2022-12-14T11:56:31.045Z,0.92
2022-12-14T11:57:35.574Z,0.93
2022-12-14T11:58:39.763Z,0.96
2022-12-14T11:59:45.994Z,0.99
2022-12-14T12:00:51.899Z,1.06
2022-12-14T12:01:55.953Z,1.07
2022-12-14T12:03:04.024Z,1.05
2022-12-14T12:04:12.372Z,1.05
2022-12-14T12:05:16.187Z,1.04
2022-12-14T12:06:28.508Z,1.07
2022-12-14T12:07:38.086Z,1.08
2022-12-14T12:08:41.615Z,1.09
2022-12-14T12:09:43.633Z,1.09
2022-12-14T12:10:50.060Z,1.11
2022-12-14T12:11:52.495Z,1.12
2022-12-14T12:12:56.841Z,1.13
2022-12-14T12:14:03.969Z,1.13
2022-12-14T12:15:06.054Z,1.14
2022-12-14T12:16:08.405Z,1.14
2022-12-14T12:17:20.572Z,1.14
2022-12-14T12:18:26.324Z,1.09
2022-12-14T12:19:38.693Z,1.11
2022-12-14T12:20:43.371Z,1.09
2022-12-14T12:21:46.995Z,1.11
2022-12-14T12:22:50.448Z,1.12
2022-12-14T12:24:14.015Z,1.10
2022-12-14T12:25:29.565Z,1.10
2022-12-14T12:26:40.557Z,1.11
2022-12-14T12:27:42.436Z,1.13
2022-12-14T12:28:50.288Z,1.14
2022-12-14T12:30:02.750Z,1.14
2022-12-14T12:31:10.933Z,1.17
2022-12-14T12:33:30.481Z,1.23
2022-12-14T12:34:37.020Z,1.24
2022-12-14T12:35:49.695Z,1.25
2022-12-14T12:37:24.648Z,1.24
2022-12-14T12:38:22.181Z,1.25
2022-12-14T12:39:24.814Z,1.27
2022-12-14T12:40:34.805Z,1.25
2022-12-14T12:41:41.991Z,1.27
2022-12-14T12:42:46.209Z,1.27
2022-12-14T12:44:06.906Z,1.27
2022-12-14T12:45:26.936Z,1.23
2022-12-14T12:46:30.933Z,1.18
2022-12-14T12:47:46.799Z,1.20
2022-12-14T12:49:02.490Z,1.20
2022-12-14T12:50:07.403Z,1.21
2022-12-14T12:51:35.517Z,1.21
2022-12-14T12:52:48.138Z,1.19
2022-12-14T12:53:53.027Z,1.16
2022-12-14T12:54:54.792Z,1.15
2022-12-14T12:56:02.217Z,1.18
2022-12-14T12:57:05.349Z,1.17
2022-12-14T12:58:10.239Z,1.14
2022-12-14T12:59:18.536Z,1.13
2022-12-14T13:00:22.340Z,1.14
2022-12-14T13:01:32.228Z,1.18
2022-12-14T13:02:36.010Z,1.21
2022-12-14T13:03:40.417Z,1.25
2022-12-14T13:04:50.758Z,1.28
2022-12-14T13:05:55.486Z,1.30
2022-12-14T13:07:02.962Z,1.32
2022-12-14T13:08:14.758Z,1.36
2022-12-14T13:09:35.279Z,1.39
2022-12-14T13:11:24.149Z,1.43
2022-12-14T13:12:24.449Z,1.46
2022-12-14T13:13:31.394Z,1.46
2022-12-14T13:14:39.377Z,1.45
2022-12-14T13:15:49.635Z,1.45
2022-12-14T13:16:52.686Z,1.44
2022-12-14T13:17:57.260Z,1.46
2022-12-14T13:19:25.492Z,1.48
2022-12-14T13:20:34.962Z,1.52
2022-12-14T13:21:40.485Z,1.52
2022-12-14T13:22:42.611Z,1.52
2022-12-14T13:23:49.844Z,1.49
2022-12-14T13:24:58.592Z,1.50
2022-12-14T13:26:04.848Z,1.48
2022-12-14T13:27:17.913Z,1.45
2022-12-14T13:28:38.608Z,1.44
2022-12-14T13:30:00.798Z,1.44
2022-12-14T13:31:14.588Z,1.42
2022-12-14T13:32:37.466Z,1.39
2022-12-14T13:33:43.225Z,1.36
2022-12-14T13:34:44.980Z,1.37
2022-12-14T13:36:16.772Z,1.35
2022-12-14T13:37:30.626Z,1.34
2022-12-14T13:38:44.404Z,1.34
2022-12-14T13:39:46.486Z,1.38
2022-12-14T13:41:01.607Z,1.38
2022-12-14T13:42:09.524Z,1.37
2022-12-14T13:43:24.783Z,1.37
2022-12-14T13:44:41.942Z,1.37
2022-12-14T13:45:49.691Z,1.37
2022-12-14T13:47:02.039Z,1.35
2022-12-14T13:48:07.937Z,1.34
2022-12-14T13:49:19.464Z,1.34
2022-12-14T13:50:39.699Z,1.33
2022-12-14T13:51:50.149Z,1.35
2022-12-14T13:52:54.621Z,1.33
2022-12-14T13:53:59.746Z,1.35
2022-12-14T13:55:01.574Z,1.35
2022-12-14T13:56:04.039Z,1.37
2022-12-14T13:57:05.789Z,1.37
2022-12-14T13:58:10.658Z,1.35
2022-12-14T13:59:27.001Z,1.30
2022-12-14T14:00:47.650Z,1.28
2022-12-14T14:01:49.426Z,1.32
2022-12-14T14:02:53.995Z,1.33
2022-12-14T14:04:16.288Z,1.35
2022-12-14T14:05:20.864Z,1.34
2022-12-14T14:06:37.054Z,1.34
2022-12-14T14:07:55.969Z,1.34
2022-12-14T14:09:03.425Z,1.35
2022-12-14T14:10:07.310Z,1.35
2022-12-14T14:11:39.954Z,1.30
2022-12-14T14:12:44.236Z,1.27
2022-12-14T14:13:49.750Z,1.27
2022-12-14T14:14:54.595Z,1.26
2022-12-14T14:16:26.955Z,1.25
2022-12-14T14:17:26.559Z,1.23
2022-12-14T14:18:30.737Z,1.22
2022-12-14T14:19:37.126Z,1.22